Time;durP1;ratioP1;P1;durP2;ratioP2;P2;SDS_P1;SDS_P2;PMS_P1;PMS_P2;Temp;Humidity;BMP_temperature;BMP_pressure;BME280_temperature;BME280_humidity;BME280_pressure;Samples;Min_cycle;Max_cycle;Signal;HPM_P1;HPM_P2
2023/05/22 00:01:05;;;;;;;31.13;2.53;;;;;;;21.58;47.04;99441.34;7319478;19;129446;-36
2023/05/22 00:03:31;;;;;;;52.75;3.67;;;;;;;21.68;47.27;99455.22;7319852;19;129421;-36
2023/05/22 00:05:57;;;;;;;2.30;1.30;;;;;;;21.68;46.91;99460.47;7316823;19;129311;-35
2023/05/22 00:08:26;;;;;;;34.50;2.95;;;;;;;21.69;47.12;99455.06;7317791;19;129523;-38
2023/05/22 00:10:53;;;;;;;28.85;2.88;;;;;;;21.71;47.01;99457.56;7318976;19;129142;-34
2023/05/22 00:13:19;;;;;;;52.78;3.47;;;;;;;21.70;46.94;99445.44;7318171;19;129089;-36
2023/05/22 00:15:44;;;;;;;29.35;2.50;;;;;;;21.57;47.07;99434.44;7316172;19;130983;-34
2023/05/22 00:18:12;;;;;;;24.20;2.33;;;;;;;21.69;47.44;99449.00;7317720;19;130302;-36
2023/05/22 00:20:39;;;;;;;33.17;2.60;;;;;;;21.70;46.85;99448.06;7317322;19;128809;-36
2023/05/22 00:23:08;;;;;;;48.65;3.45;;;;;;;21.69;47.34;99446.41;7317787;19;129423;-36
2023/05/22 00:25:35;;;;;;;19.77;2.00;;;;;;;21.65;47.54;99435.38;7317253;19;130256;-36
2023/05/22 00:28:01;;;;;;;25.60;2.13;;;;;;;21.71;47.23;99445.31;7318156;19;130335;-37
2023/05/22 00:30:26;;;;;;;33.58;2.63;;;;;;;21.70;47.38;99445.44;7317893;19;128984;-35
2023/05/22 00:32:51;;;;;;;61.03;3.80;;;;;;;21.63;47.07;99424.28;7318004;19;129022;-35
2023/05/22 00:35:17;;;;;;;24.23;2.17;;;;;;;21.72;47.48;99431.22;7317249;19;130004;-37
2023/05/22 00:37:44;;;;;;;43.08;3.00;;;;;;;21.72;46.76;99433.84;7317691;19;129249;-36
2023/05/22 00:40:11;;;;;;;33.63;2.63;;;;;;;21.72;47.33;99431.22;7318122;19;128836;-39
2023/05/22 00:42:36;;;;;;;61.03;4.15;;;;;;;21.75;46.93;99436.19;7318520;19;129658;-37
2023/05/22 00:45:02;;;;;;;24.90;2.40;;;;;;;21.76;46.79;99427.41;7317602;19;129521;-33
2023/05/22 00:47:27;;;;;;;14.05;1.58;;;;;;;21.63;47.25;99408.56;7316839;19;129260;-35
2023/05/22 00:49:53;;;;;;;35.35;2.63;;;;;;;21.75;47.16;99428.31;7317843;19;128971;-37
2023/05/22 00:52:18;;;;;;;44.00;3.38;;;;;;;21.74;47.33;99421.47;7318413;19;129240;-37
2023/05/22 00:54:44;;;;;;;35.30;2.97;;;;;;;21.76;46.95;99419.56;7316573;19;130149;-36
2023/05/22 00:57:10;;;;;;;32.75;2.55;;;;;;;21.79;47.20;99427.13;7314812;19;129587;-36
2023/05/22 00:59:36;;;;;;;38.38;2.97;;;;;;;21.77;47.32;99426.44;7317188;19;128800;-36
2023/05/22 01:02:01;;;;;;;34.30;2.75;;;;;;;21.76;46.89;99419.56;7317056;19;130190;-37
2023/05/22 01:04:27;;;;;;;25.13;2.13;;;;;;;21.71;46.65;99411.28;7316176;19;130756;-36
2023/05/22 01:06:54;;;;;;;25.27;2.33;;;;;;;21.76;46.96;99419.56;7315013;19;130253;-37
2023/05/22 01:09:19;;;;;;;48.67;3.10;;;;;;;21.78;46.84;99419.41;7316473;19;128809;-38
2023/05/22 01:11:57;;;;;;;35.67;2.50;;;;;;;21.79;47.36;99429.72;7317591;19;128678;-39
2023/05/22 01:14:35;;;;;;;27.40;2.17;;;;;;;21.66;46.58;99410.88;7317138;19;129926;-38
2023/05/22 01:17:22;;;;;;;25.45;2.13;;;;;;;21.76;46.92;99430.03;7314803;19;129639;-36
2023/05/22 01:20:06;;;;;;;28.27;2.45;;;;;;;21.79;46.63;99434.97;7315426;19;128807;-37
2023/05/22 01:22:46;;;;;;;25.85;2.17;;;;;;;21.80;47.20;99433.97;7316527;19;129084;-39
2023/05/22 01:25:30;;;;;;;23.88;2.08;;;;;;;21.79;46.77;99440.19;7314672;19;129367;-37
2023/05/22 01:28:17;;;;;;;24.92;2.33;;;;;;;21.79;47.15;99445.44;7315934;19;130467;-38
2023/05/22 01:30:58;;;;;;;25.77;2.07;;;;;;;21.78;46.42;99438.53;7316923;19;128849;-36
2023/05/22 01:33:25;;;;;;;15.10;1.67;;;;;;;21.76;46.53;99435.25;7316434;19;129166;-33
2023/05/22 01:35:53;;;;;;;33.22;2.50;;;;;;;21.79;47.17;99439.38;7313379;19;129064;-36
2023/05/22 01:38:18;;;;;;;57.05;3.83;;;;;;;21.81;46.96;99435.66;7315862;19;130595;-37
2023/05/22 01:40:45;;;;;;;44.47;3.10;;;;;;;21.81;46.75;99438.25;7315923;19;129003;-38
2023/05/22 01:43:13;;;;;;;31.10;2.58;;;;;;;21.82;46.97;99439.91;7315917;19;129421;-36
2023/05/22 01:45:38;;;;;;;26.85;2.10;;;;;;;21.84;46.94;99434.53;7313834;19;130218;-37
2023/05/22 01:48:04;;;;;;;62.42;4.07;;;;;;;21.81;46.72;99430.41;7315810;19;129156;-38
2023/05/22 01:50:30;;;;;;;26.77;2.20;;;;;;;21.82;46.78;99434.66;7314831;19;128854;-34
2023/05/22 01:53:10;;;;;;;30.02;2.33;;;;;;;21.79;46.36;99437.59;7315508;19;128870;-35
2023/05/22 01:55:50;;;;;;;31.00;2.42;;;;;;;21.71;46.79;99424.38;7313771;19;129729;-36
2023/05/22 01:58:21;;;;;;;35.90;2.67;;;;;;;21.83;46.36;99438.91;7313793;19;129450;-37
2023/05/22 02:00:53;;;;;;;16.98;1.65;;;;;;;21.83;46.95;99433.69;7315244;19;129421;-37
2023/05/22 02:03:21;;;;;;;56.08;3.67;;;;;;;21.85;46.46;99439.59;7315417;19;128969;-39
2023/05/22 02:05:52;;;;;;;31.85;2.42;;;;;;;21.86;46.57;99438.66;7313105;19;130645;-37
2023/05/22 02:08:19;;;;;;;31.65;2.35;;;;;;;21.85;46.40;99436.16;7315754;19;130874;-37
2023/05/22 02:10:46;;;;;;;43.63;3.05;;;;;;;21.76;46.89;99423.94;7315043;19;128941;-36
2023/05/22 02:13:12;;;;;;;36.55;2.67;;;;;;;21.84;46.82;99430.13;7315319;19;128805;-38
2023/05/22 02:15:37;;;;;;;32.92;2.33;;;;;;;21.75;46.93;99412.63;7313082;19;129275;-37
2023/05/22 02:18:09;;;;;;;27.08;2.15;;;;;;;21.86;46.84;99436.03;7314555;19;129645;-37
2023/05/22 02:20:35;;;;;;;35.47;2.38;;;;;;;21.74;46.42;99416.22;7314757;19;129044;-38
2023/05/22 02:23:00;;;;;;;29.00;2.38;;;;;;;21.89;46.32;99434.91;7314795;19;128915;-35
2023/05/22 02:25:26;;;;;;;26.77;2.25;;;;;;;21.86;46.46;99424.75;7313177;19;129124;-37
2023/05/22 02:27:51;;;;;;;23.20;1.80;;;;;;;21.85;46.99;99423.91;7312844;19;129532;-36
2023/05/22 02:30:16;;;;;;;13.43;1.48;;;;;;;21.86;46.16;99420.34;7314818;19;130467;-36
2023/05/22 02:32:42;;;;;;;37.27;2.57;;;;;;;21.88;46.55;99417.56;7315132;19;129081;-36
2023/05/22 02:35:08;;;;;;;28.33;2.13;;;;;;;21.87;46.42;99419.34;7313717;19;130558;-37
2023/05/22 02:37:34;;;;;;;20.03;1.77;;;;;;;21.87;46.46;99421.13;7312081;19;130881;-36
2023/05/22 02:40:00;;;;;;;32.67;2.40;;;;;;;21.89;46.46;99419.22;7314024;19;128881;-38
2023/05/22 02:42:25;;;;;;;29.15;2.17;;;;;;;21.87;46.21;99413.28;7315029;19;128823;-36
2023/05/22 02:44:50;;;;;;;38.25;2.60;;;;;;;21.87;46.49;99416.75;7313515;19;129816;-36
2023/05/22 02:47:16;;;;;;;10.15;1.58;;;;;;;21.90;46.10;99411.22;7314195;19;129513;-38
2023/05/22 02:49:41;;;;;;;46.50;3.00;;;;;;;21.90;46.14;99421.69;7313731;19;128938;-36
2023/05/22 02:52:06;;;;;;;34.90;2.65;;;;;;;21.90;46.52;99416.44;7314678;19;129441;-37
2023/05/22 02:54:32;;;;;;;28.63;2.30;;;;;;;21.91;46.54;99415.47;7312968;19;130174;-34
2023/05/22 02:56:57;;;;;;;8.00;1.33;;;;;;;21.92;46.72;99417.13;7312483;19;129176;-36
2023/05/22 02:59:23;;;;;;;36.38;2.53;;;;;;;21.89;46.75;99403.50;7314288;19;128778;-36
2023/05/22 03:01:48;;;;;;;26.23;2.38;;;;;;;21.88;46.32;99407.09;7313953;19;129473;-39
2023/05/22 03:04:14;;;;;;;24.77;2.13;;;;;;;21.89;46.21;99408.75;7313280;19;129041;-34
2023/05/22 03:06:40;;;;;;;28.02;2.30;;;;;;;21.94;46.75;99401.28;7311042;19;129113;-37
2023/05/22 03:09:07;;;;;;;26.55;1.98;;;;;;;21.93;46.71;99405.69;7313537;19;128932;-37
2023/05/22 03:11:33;;;;;;;37.58;2.80;;;;;;;21.94;46.61;99402.09;7313912;19;129717;-35
2023/05/22 03:13:58;;;;;;;41.67;3.10;;;;;;;21.93;46.18;99405.69;7312715;19;129017;-36
2023/05/22 03:16:24;;;;;;;39.08;2.70;;;;;;;21.91;46.72;99405.00;7310919;19;129739;-37
2023/05/22 03:18:50;;;;;;;24.58;2.10;;;;;;;21.94;46.62;99399.50;7312637;19;129099;-37
2023/05/22 03:21:15;;;;;;;23.52;1.90;;;;;;;21.94;46.04;99402.09;7313449;19;129871;-35
2023/05/22 03:23:40;;;;;;;28.33;2.10;;;;;;;21.94;46.14;99399.50;7311976;19;129490;-40
2023/05/22 03:26:06;;;;;;;43.70;2.83;;;;;;;21.94;46.69;99399.50;7311782;19;130039;-37
2023/05/22 03:28:31;;;;;;;15.77;1.73;;;;;;;21.93;46.36;99395.19;7313795;19;129509;-36
2023/05/22 03:30:56;;;;;;;25.25;1.80;;;;;;;21.94;46.54;99396.03;7313762;19;129206;-37
2023/05/22 03:33:22;;;;;;;26.73;2.17;;;;;;;21.94;45.95;99386.41;7312806;19;130045;-37
2023/05/22 03:35:47;;;;;;;40.70;2.78;;;;;;;21.95;46.23;99393.28;7311401;19;129719;-37
2023/05/22 03:38:12;;;;;;;20.87;1.77;;;;;;;21.95;45.93;99388.03;7313658;19;128941;-36
2023/05/22 03:40:38;;;;;;;27.30;2.03;;;;;;;21.95;46.24;99398.50;7312096;19;129200;-37
2023/05/22 03:43:03;;;;;;;25.97;2.20;;;;;;;21.96;46.36;99392.28;7312197;19;129599;-35
2023/05/22 03:45:29;;;;;;;43.55;3.08;;;;;;;21.95;46.60;99397.66;7310707;19;129472;-38
2023/05/22 03:47:54;;;;;;;30.73;2.47;;;;;;;21.93;46.14;99387.34;7312647;19;129049;-37
2023/05/22 03:50:19;;;;;;;51.10;3.35;;;;;;;21.96;46.55;99384.44;7312310;19;129012;-36
2023/05/22 03:52:45;;;;;;;28.90;2.35;;;;;;;21.95;46.02;99390.66;7311382;19;129302;-36
2023/05/22 03:55:10;;;;;;;33.30;2.53;;;;;;;21.96;46.59;99388.88;7310719;19;129245;-37
2023/05/22 03:57:36;;;;;;;23.90;2.05;;;;;;;21.95;45.96;99388.03;7310881;19;129306;-34
2023/05/22 04:00:08;;;;;;;34.93;2.40;;;;;;;21.86;46.10;99373.22;7312476;19;129691;-35
2023/05/22 04:02:37;;;;;;;38.47;2.78;;;;;;;22.00;46.41;99389.41;7310686;19;129753;-36
2023/05/22 04:05:06;;;;;;;74.03;4.22;;;;;;;21.95;45.86;99390.66;7309307;19;130548;-36
2023/05/22 04:07:31;;;;;;;12.73;1.25;;;;;;;21.86;46.43;99373.22;7310469;19;128913;-37
2023/05/22 04:09:56;;;;;;;81.90;4.70;;;;;;;22.02;46.30;99390.06;7306767;19;129679;-38
2023/05/22 04:12:22;;;;;;;73.90;4.38;;;;;;;21.98;46.59;99387.72;7306131;19;129448;-36
2023/05/22 04:14:47;;;;;;;71.00;4.35;;;;;;;21.98;46.55;99380.88;7305124;19;130577;-37
2023/05/22 04:17:12;;;;;;;56.45;3.45;;;;;;;21.98;46.31;99382.50;7304416;19;129639;-41
2023/05/22 04:19:38;;;;;;;45.17;3.13;;;;;;;22.02;46.38;99387.44;7304780;19;132319;-37
2023/05/22 04:22:03;;;;;;;60.20;3.63;;;;;;;22.06;46.32;99388.81;7308166;19;129478;-37
2023/05/22 04:24:28;;;;;;;61.00;3.65;;;;;;;22.01;46.13;99381.41;7311415;19;129734;-37
2023/05/22 04:26:54;;;;;;;24.70;1.80;;;;;;;22.04;46.28;99395.97;7317767;19;128786;-37
2023/05/22 04:29:21;;;;;;;97.33;5.80;;;;;;;22.02;45.91;99392.66;7316515;19;129228;-38
2023/05/22 04:31:46;;;;;;;39.03;2.70;;;;;;;21.92;46.05;99383.09;7317216;19;130155;-37
2023/05/22 04:34:14;;;;;;;35.63;2.40;;;;;;;22.05;45.93;99392.41;7317686;19;129519;-37
2023/05/22 04:36:40;;;;;;;26.45;2.17;;;;;;;22.04;45.80;99395.97;7313769;19;129535;-36
2023/05/22 04:39:05;;;;;;;28.30;2.53;;;;;;;22.00;46.09;99392.03;7316303;19;129045;-34
2023/05/22 04:41:31;;;;;;;70.13;4.63;;;;;;;22.02;46.06;99397.91;7316347;19;132128;-37
2023/05/22 04:43:57;;;;;;;72.15;4.88;;;;;;;22.01;46.46;99391.03;7317272;19;131033;-36
2023/05/22 04:46:22;;;;;;;32.57;2.60;;;;;;;22.00;46.29;99392.03;7314195;19;129493;-36
2023/05/22 04:48:48;;;;;;;25.48;2.17;;;;;;;22.03;45.72;99399.56;7312362;19;129010;-38
2023/05/22 04:51:13;;;;;;;42.70;3.25;;;;;;;22.02;46.27;99400.53;7317932;19;129209;-34
2023/05/22 04:53:39;;;;;;;37.83;3.10;;;;;;;22.06;46.27;99391.41;7318161;19;129091;-37
2023/05/22 04:56:05;;;;;;;29.45;2.50;;;;;;;22.03;45.71;99400.41;7315584;19;128962;-37
2023/05/22 04:58:31;;;;;;;27.15;2.42;;;;;;;22.05;45.77;99400.25;7313533;19;129460;-37
2023/05/22 05:00:56;;;;;;;53.05;3.83;;;;;;;22.07;46.27;99396.50;7314024;19;130067;-38
2023/05/22 05:03:24;;;;;;;34.53;3.15;;;;;;;22.06;46.20;99396.66;7315365;19;130209;-34
2023/05/22 05:05:50;;;;;;;41.85;2.90;;;;;;;22.03;45.89;99391.72;7311650;19;129564;-35
2023/05/22 05:08:16;;;;;;;29.80;2.28;;;;;;;22.02;46.05;99382.19;7314901;19;130064;-36
2023/05/22 05:10:41;;;;;;;52.35;3.78;;;;;;;22.07;45.87;99391.28;7315724;19;129958;-36
2023/05/22 05:13:06;;;;;;;58.88;4.03;;;;;;;22.03;46.13;99386.47;7315467;19;129766;-40
2023/05/22 05:15:32;;;;;;;37.40;3.15;;;;;;;22.06;45.63;99394.88;7312996;19;129086;-35
2023/05/22 05:17:57;;;;;;;86.85;6.00;;;;;;;22.07;45.66;99390.44;7312560;19;129191;-37
2023/05/22 05:20:23;;;;;;;46.53;3.37;;;;;;;22.05;45.71;99387.97;7315545;19;129482;-38
2023/05/22 05:22:49;;;;;;;14.33;1.57;;;;;;;22.05;45.96;99389.78;7314606;19;129652;-35
2023/05/22 05:25:15;;;;;;;24.73;2.58;;;;;;;22.04;45.59;99395.97;7314667;19;129460;-37
2023/05/22 05:27:40;;;;;;;33.45;2.70;;;;;;;22.10;46.17;99400.63;7316279;19;128938;-36
2023/05/22 05:30:06;;;;;;;36.03;2.60;;;;;;;22.10;45.76;99398.03;7315022;19;129048;-34
2023/05/22 05:32:32;;;;;;;24.53;2.20;;;;;;;22.09;45.53;99404.22;7316864;19;130206;-35
2023/05/22 05:34:57;;;;;;;23.92;2.22;;;;;;;22.07;45.57;99396.50;7315181;19;129547;-32
2023/05/22 05:37:22;;;;;;;16.48;1.95;;;;;;;22.08;45.91;99398.13;7313228;19;129068;-35
2023/05/22 05:39:48;;;;;;;37.22;2.97;;;;;;;22.10;45.68;99405.88;7315282;19;129434;-37
2023/05/22 05:42:13;;;;;;;31.13;2.63;;;;;;;22.10;45.92;99405.88;7316554;19;129216;-36
2023/05/22 05:44:39;;;;;;;19.33;2.35;;;;;;;22.10;45.88;99400.63;7316041;19;129173;-33
2023/05/22 05:47:05;;;;;;;42.00;3.35;;;;;;;22.00;45.76;99384.97;7316666;19;128930;-35
2023/05/22 05:49:30;;;;;;;28.00;2.50;;;;;;;22.13;46.01;99398.53;7315592;19;130062;-35
2023/05/22 05:51:55;;;;;;;23.03;2.30;;;;;;;22.11;45.50;99403.09;7314747;19;130179;-36
2023/05/22 05:54:21;;;;;;;23.05;2.10;;;;;;;22.10;46.20;99406.69;7315702;19;128860;-33
2023/05/22 05:56:46;;;;;;;41.55;3.22;;;;;;;22.10;45.55;99408.50;7311566;19;129580;-38
2023/05/22 05:59:12;;;;;;;29.40;2.55;;;;;;;22.08;46.16;99402.56;7315490;19;129245;-38
2023/05/22 06:01:38;;;;;;;29.02;2.47;;;;;;;22.03;45.73;99383.88;7314877;19;129247;-37
2023/05/22 06:04:04;;;;;;;32.57;2.93;;;;;;;22.03;46.03;99389.09;7314704;19;128778;-37
2023/05/22 06:06:34;;;;;;;61.72;3.95;;;;;;;22.10;46.07;99400.63;7311636;19;128930;-38
2023/05/22 06:09:05;;;;;;;4.18;1.17;;;;;;;22.11;46.13;99397.03;7316014;19;129006;-34
2023/05/22 06:11:33;;;;;;;24.90;2.63;;;;;;;22.13;45.73;99401.13;7315654;19;130314;-35
2023/05/22 06:13:59;;;;;;;44.72;3.72;;;;;;;22.11;45.59;99391.81;7315224;19;129023;-36
2023/05/22 06:16:25;;;;;;;45.88;3.42;;;;;;;22.11;45.76;99386.56;7313390;19;128959;-35
2023/05/22 06:18:51;;;;;;;8.35;1.55;;;;;;;22.10;45.51;99388.34;7316239;19;130257;-37
2023/05/22 06:21:19;;;;;;;35.22;3.00;;;;;;;22.13;45.79;99390.66;7314752;19;129451;-35
2023/05/22 06:23:46;;;;;;;43.28;3.58;;;;;;;22.13;46.06;99400.34;7313611;19;128965;-38
2023/05/22 06:26:12;;;;;;;;;;;;;;;22.13;46.33;99395.09;7313792;19;130306;-36
2023/05/22 06:28:38;;;;;;;14.63;2.10;;;;;;;22.12;45.96;99390.81;7315353;19;130250;-37
2023/05/22 06:31:03;;;;;;;26.48;2.50;;;;;;;22.12;46.27;99391.66;7314626;19;129856;-37
2023/05/22 06:33:29;;;;;;;33.55;3.00;;;;;;;22.13;46.08;99390.66;7314216;19;129308;-36
2023/05/22 06:35:55;;;;;;;46.92;3.53;;;;;;;22.14;45.88;99391.50;7312502;19;128807;-36
2023/05/22 06:38:20;;;;;;;39.50;3.17;;;;;;;22.15;45.90;99387.94;7311519;19;129924;-35
2023/05/22 06:40:46;;;;;;;35.17;3.08;;;;;;;22.13;45.56;99384.63;7314128;19;129604;-40
2023/05/22 06:43:11;;;;;;;25.60;2.38;;;;;;;22.12;46.05;99382.97;7314619;19;129146;-36
2023/05/22 06:45:37;;;;;;;43.85;3.22;;;;;;;22.15;46.14;99387.94;7310150;19;129669;-37
2023/05/22 06:48:03;;;;;;;16.08;1.77;;;;;;;22.14;45.93;99387.09;7314581;19;130159;-38
2023/05/22 06:50:29;;;;;;;22.92;2.25;;;;;;;22.02;45.96;99367.31;7314398;19;130330;-37
2023/05/22 06:52:55;;;;;;;27.30;2.35;;;;;;;22.16;45.83;99384.31;7314266;19;129173;-35
2023/05/22 06:55:20;;;;;;;57.38;4.00;;;;;;;22.04;46.10;99370.63;7310891;19;130567;-36
2023/05/22 06:57:46;;;;;;;42.03;3.17;;;;;;;22.12;45.43;99377.72;7312382;19;129940;-40
2023/05/22 07:00:12;;;;;;;10.98;1.92;;;;;;;22.15;45.64;99393.16;7311933;19;129823;-36
2023/05/22 07:02:38;;;;;;;48.70;3.55;;;;;;;22.18;45.62;99392.88;7314264;19;128839;-35
2023/05/22 07:05:04;;;;;;;36.90;2.92;;;;;;;22.19;45.62;99394.50;7311372;19;129054;-36
2023/05/22 07:07:29;;;;;;;29.42;2.72;;;;;;;22.16;45.40;99385.16;7315496;19;129954;-35
2023/05/22 07:09:55;;;;;;;35.58;3.03;;;;;;;22.16;45.47;99384.31;7311545;19;130348;-36
2023/05/22 07:12:24;;;;;;;60.50;4.13;;;;;;;22.21;45.92;99387.31;7312275;19;130649;-37
2023/05/22 07:14:50;;;;;;;38.35;3.03;;;;;;;22.17;45.68;99375.50;7311807;19;128972;-37
2023/05/22 07:17:15;;;;;;;31.77;2.53;;;;;;;22.17;45.67;99380.72;7313485;19;129876;-35
2023/05/22 07:19:41;;;;;;;44.25;3.63;;;;;;;22.20;45.42;99376.03;7312291;19;129059;-37
2023/05/22 07:22:06;;;;;;;39.85;3.08;;;;;;;22.18;45.46;99371.91;7312314;19;129445;-36
2023/05/22 07:24:31;;;;;;;44.03;3.40;;;;;;;22.16;45.64;99373.84;7312034;19;128830;-36
2023/05/22 07:26:57;;;;;;;29.27;2.43;;;;;;;22.17;45.96;99365.00;7313468;19;130119;-35
2023/05/22 07:29:22;;;;;;;37.00;3.83;;;;;;;22.17;46.28;99365.00;7311287;19;129091;-36
2023/05/22 07:31:47;;;;;;;53.03;3.72;;;;;;;22.23;45.64;99370.47;7311503;19;129011;-37
2023/05/22 07:34:13;;;;;;;40.38;3.05;;;;;;;22.23;46.24;99373.09;7308521;19;129751;-37
2023/05/22 07:36:38;;;;;;;28.40;2.58;;;;;;;22.22;45.82;99368.84;7310612;19;129061;-37
2023/05/22 07:39:04;;;;;;;37.80;3.30;;;;;;;22.11;45.81;99355.16;7311642;19;129272;-36
2023/05/22 07:41:29;;;;;;;48.63;3.90;;;;;;;22.19;45.74;99368.31;7312359;19;128968;-39
2023/05/22 07:43:55;;;;;;;70.97;5.25;;;;;;;22.22;46.04;99378.47;7312246;19;129010;-35
2023/05/22 07:46:20;;;;;;;32.90;2.95;;;;;;;22.22;46.18;99370.63;7310265;19;129454;-36
2023/05/22 07:48:45;;;;;;;26.53;2.70;;;;;;;22.23;45.87;99367.06;7309465;19;129575;-36
2023/05/22 07:51:12;;;;;;;45.40;3.50;;;;;;;22.21;45.99;99367.22;7312022;19;128988;-36
2023/05/22 07:53:38;;;;;;;40.88;3.33;;;;;;;22.21;45.59;99367.22;7310735;19;129050;-38
2023/05/22 07:56:03;;;;;;;23.88;2.55;;;;;;;22.22;45.73;99368.00;7309424;19;129503;-35
2023/05/22 07:58:29;;;;;;;36.95;3.05;;;;;;;22.19;45.95;99357.84;7315259;19;129623;-35
2023/05/22 08:00:54;;;;;;;32.70;3.25;;;;;;;22.23;46.45;99365.25;7318275;19;129450;-39
2023/05/22 08:03:20;;;;;;;25.20;2.75;;;;;;;22.18;46.06;99351.78;7319362;19;129382;-35
2023/05/22 08:05:46;;;;;;;34.25;2.83;;;;;;;22.21;45.79;99359.34;7316297;19;129523;-36
2023/05/22 08:08:11;;;;;;;67.38;4.90;;;;;;;22.12;46.24;99338.47;7318130;19;129266;-35
2023/05/22 08:10:36;;;;;;;18.08;2.08;;;;;;;22.24;45.81;99355.59;7319249;19;129013;-37
2023/05/22 08:13:05;;;;;;;44.97;3.72;;;;;;;22.25;45.36;99354.63;7318841;19;129267;-36
2023/05/22 08:15:31;;;;;;;13.80;1.77;;;;;;;22.24;45.47;99350.38;7316720;19;129815;-36
2023/05/22 08:17:56;;;;;;;37.47;3.00;;;;;;;22.25;45.80;99349.38;7315556;19;130001;-36
2023/05/22 08:20:22;;;;;;;41.67;3.20;;;;;;;22.23;45.72;99353.97;7316276;19;128876;-36
2023/05/22 08:22:47;;;;;;;29.15;2.97;;;;;;;22.23;45.23;99352.16;7318253;19;129051;-36
2023/05/22 08:25:12;;;;;;;23.60;2.35;;;;;;;22.23;45.13;99349.53;7315805;19;130451;-36
2023/05/22 08:27:38;;;;;;;186.00;11.57;;;;;;;22.17;45.09;99331.81;7306529;19;130547;-40
2023/05/22 08:30:04;;;;;;;206.52;12.45;;;;;;;22.24;45.84;99347.75;7280951;19;130739;-39
2023/05/22 08:32:29;;;;;;;191.77;11.55;;;;;;;22.24;45.08;99345.13;7283838;19;131190;-38
2023/05/22 08:34:55;;;;;;;230.43;13.95;;;;;;;22.26;45.28;99348.41;7281934;19;131798;-36
2023/05/22 08:37:20;;;;;;;204.35;12.10;;;;;;;22.25;45.45;99341.53;7280820;19;131613;-40
2023/05/22 08:39:45;;;;;;;219.07;13.05;;;;;;;22.28;45.57;99346.47;7284611;19;130009;-37
2023/05/22 08:42:11;;;;;;;186.38;11.50;;;;;;;22.17;45.10;99316.09;7281680;19;131232;-35
2023/05/22 08:44:36;;;;;;;196.03;11.77;;;;;;;22.27;45.37;99335.19;7282777;19;132225;-40
2023/05/22 08:47:08;;;;;;;185.50;11.40;;;;;;;22.28;45.75;99342.03;7282795;19;130345;-37
2023/05/22 08:49:34;;;;;;;189.25;11.75;;;;;;;22.30;44.87;99344.50;7280355;19;129967;-40
2023/05/22 08:52:06;;;;;;;211.53;13.13;;;;;;;22.27;45.46;99336.97;7283722;19;130103;-40
2023/05/22 08:54:35;;;;;;;163.25;10.05;;;;;;;22.33;45.15;99339.00;7282556;19;130453;-37
2023/05/22 08:57:01;;;;;;;206.55;12.40;;;;;;;22.36;45.79;99334.25;7279341;19;131517;-36
2023/05/22 08:59:27;;;;;;;211.37;13.10;;;;;;;22.39;45.73;99333.16;7271710;19;131827;-38
2023/05/22 09:01:53;;;;;;;220.70;13.65;;;;;;;22.38;45.83;99328.91;7275313;19;129707;-36
2023/05/22 09:04:22;;;;;;;36.10;3.00;;;;;;;22.38;45.66;99326.28;7290386;19;130748;-37
2023/05/22 09:06:48;;;;;;;42.88;3.42;;;;;;;22.39;45.96;99328.75;7312141;19;131373;-36
2023/05/22 09:09:13;;;;;;;33.55;2.95;;;;;;;22.35;45.82;99334.41;7316727;19;128890;-37
2023/05/22 09:11:39;;;;;;;33.13;3.38;;;;;;;22.38;46.11;99331.53;7315570;19;129733;-36
2023/05/22 09:14:11;;;;;;;31.92;3.13;;;;;;;22.35;45.99;99323.94;7316849;19;129467;-36
2023/05/22 09:16:48;;;;;;;49.92;4.00;;;;;;;22.35;45.72;99326.56;7311476;19;130020;-39
2023/05/22 09:19:14;;;;;;;58.83;4.30;;;;;;;22.32;45.87;99319.00;7315683;19;129588;-35
2023/05/22 09:21:40;;;;;;;51.83;4.03;;;;;;;22.30;45.85;99318.31;7313027;19;129798;-36
2023/05/22 09:24:09;;;;;;;43.17;4.95;;;;;;;22.30;46.10;99307.84;7316162;19;130074;-36
2023/05/22 09:26:36;;;;;;;127.75;10.55;;;;;;;22.42;47.39;99327.59;7309743;19;131567;-38
2023/05/22 09:29:04;;;;;;;59.70;7.07;;;;;;;22.55;48.54;99328.06;7316504;19;129216;-35
2023/05/22 09:31:30;;;;;;;82.78;7.88;;;;;;;22.57;47.67;99331.34;7314851;19;129379;-41
2023/05/22 09:33:56;;;;;;;111.85;10.13;;;;;;;22.54;47.79;99332.50;7314199;19;130100;-36
2023/05/22 09:36:32;;;;;;;50.70;5.93;;;;;;;22.51;47.32;99329.31;7310728;19;130042;-37
2023/05/22 09:39:02;;;;;;;69.75;6.50;;;;;;;22.52;46.64;99326.56;7314528;19;128850;-38
2023/05/22 09:41:31;;;;;;;45.45;5.03;;;;;;;22.52;46.40;99325.72;7313703;19;129231;-38
2023/05/22 09:43:56;;;;;;;77.22;7.28;;;;;;;22.49;46.37;99333.88;7316124;19;130580;-38
2023/05/22 09:46:21;;;;;;;27.98;4.45;;;;;;;22.50;46.60;99340.75;7314120;19;130394;-39
2023/05/22 09:48:51;;;;;;;43.85;5.40;;;;;;;22.44;46.05;99331.72;7316032;19;129012;-38
2023/05/22 09:51:20;;;;;;;38.42;5.15;;;;;;;22.41;46.49;99321.53;7315784;19;128918;-38
2023/05/22 09:53:47;;;;;;;49.72;5.00;;;;;;;22.45;46.64;99328.13;7315765;19;129593;-39
2023/05/22 09:56:15;;;;;;;32.75;5.25;;;;;;;22.44;46.20;99331.72;7313751;19;129675;-40
2023/05/22 09:58:42;;;;;;;38.42;5.00;;;;;;;22.39;46.34;99312.19;7313103;19;128926;-39
2023/05/22 10:01:12;;;;;;;53.03;4.88;;;;;;;22.35;45.86;99309.06;7315874;19;129010;-38
2023/05/22 10:03:39;;;;;;;42.53;5.55;;;;;;;22.34;45.56;99309.22;7316554;19;130361;-39
2023/05/22 10:06:05;;;;;;;34.05;4.40;;;;;;;22.43;45.90;99318.78;7314432;19;129591;-39
2023/05/22 10:08:37;;;;;;;32.00;4.70;;;;;;;22.45;45.70;99316.81;7316771;19;129186;-39
2023/05/22 10:11:05;;;;;;;54.28;5.57;;;;;;;22.45;45.92;99324.69;7314866;19;129442;-39
2023/05/22 10:13:31;;;;;;;51.40;5.10;;;;;;;22.44;45.95;99321.25;7315644;19;130079;-36
2023/05/22 10:15:58;;;;;;;21.02;3.20;;;;;;;22.40;46.00;99324.31;7313131;19;129274;-38
2023/05/22 10:18:25;;;;;;;32.90;4.18;;;;;;;22.39;45.42;99313.03;7313137;19;129154;-39
2023/05/22 10:20:51;;;;;;;;;;;;;;;22.42;45.23;99311.88;7313775;19;129789;-36
2023/05/22 10:23:16;;;;;;;42.78;4.65;;;;;;;22.41;45.82;99313.69;7315400;19;129552;-39
2023/05/22 10:25:42;;;;;;;33.30;3.83;;;;;;;22.38;46.00;99310.56;7313309;19;129235;-39
2023/05/22 10:28:10;;;;;;;18.25;3.38;;;;;;;22.40;45.85;99303.34;7315235;19;129082;-39
2023/05/22 10:30:39;;;;;;;37.33;4.40;;;;;;;22.40;45.77;99305.97;7315715;19;128878;-39
2023/05/22 10:33:10;;;;;;;42.90;4.15;;;;;;;22.38;45.59;99306.13;7315620;19;130662;-39
2023/05/22 10:35:56;;;;;;;29.38;3.67;;;;;;;22.31;45.27;99299.88;7312923;19;129091;-38
2023/05/22 10:38:43;;;;;;;35.33;3.97;;;;;;;22.41;46.00;99307.63;7313029;19;129332;-38
2023/05/22 10:41:09;;;;;;;4.18;2.20;;;;;;;22.45;45.64;99301.09;7315583;19;128911;-37
2023/05/22 10:43:42;;;;;;;30.15;3.72;;;;;;;22.44;45.58;99304.72;7315398;19;130216;-39
2023/05/22 10:46:08;;;;;;;27.58;3.45;;;;;;;22.43;45.75;99300.44;7313446;19;130339;-38
2023/05/22 10:48:44;;;;;;;28.83;3.38;;;;;;;22.41;45.81;99290.09;7314401;19;128721;-38
2023/05/22 10:51:20;;;;;;;43.70;4.47;;;;;;;22.41;45.45;99305.00;7314189;19;128845;-36
2023/05/22 10:53:52;;;;;;;48.75;4.78;;;;;;;22.40;45.09;99298.94;7315013;19;129154;-37
2023/05/22 10:56:18;;;;;;;26.00;3.20;;;;;;;22.39;45.83;99288.63;7312270;19;130273;-39
2023/05/22 10:58:56;;;;;;;24.73;2.90;;;;;;;22.39;45.34;99301.72;7311967;19;129087;-40
2023/05/22 11:01:24;;;;;;;19.27;2.90;;;;;;;22.43;45.03;99287.34;7314970;19;129017;-39
2023/05/22 11:04:03;;;;;;;78.45;5.68;;;;;;;22.41;45.24;99289.31;7312769;19;129125;-37
2023/05/22 11:06:44;;;;;;;34.70;3.83;;;;;;;22.31;45.53;99262.38;7311964;19;129228;-36
2023/05/22 11:09:35;;;;;;;27.92;3.53;;;;;;;22.32;45.08;99258.78;7314268;19;128846;-38
2023/05/22 11:12:19;;;;;;;36.03;3.50;;;;;;;22.41;45.35;99277.00;7313608;19;129779;-39
2023/05/22 11:14:55;;;;;;;37.42;3.58;;;;;;;22.41;45.35;99269.16;7314411;19;130579;-37
2023/05/22 11:17:39;;;;;;;33.13;3.45;;;;;;;22.42;45.19;99276.03;7312896;19;131105;-38